Central, Connecticut
Current Conditions -  °F | °C
As of 12:53 AM on Friday 28 Nov 2014 (Local Time) from KHFD Reporting Station
Overcast Overcast  
Wind Chill: -3°   Ceiling: 5000
Heat Index:   Visibility: 10mi
Dew Point: -3°   Wind: 6mph
Humidity: 79%   Direction: NA
Pressure: 30.02"   Gusts: NA
Location:  41.7665°N, 72.6731°W
Report Text: KHFD 280553Z VRB05KT 10SM BKN050 OVC060 00/M03 A3002 RMK AO2 SLP166 60000 T00001033 10011 20000 58004
Loading
Personal Weather Stations






























Interactive Weather Map New forecast layout! Learn more

10-Day Weather Forecast

Advertisements
Track Severe Weather on mobile